Terminal Aerodrome Forecast
Issued by NWS

Home | Current Version | Previous Version | Text Only | Print | Product List | Glossary On
Versions: 1 2 3 4 5 6 7 8 9 10 11 12 13 14 15 16 17 18 19 20 21 22 23 24 25 26 27 28 29 30 31 32 33 34 35 36 37 38 39 40 41 42 43 44 45 46 47 48 49 50
064
FTUS43 KDDC 272320
TAFGCK
TAF
KGCK 272320Z 2800/2824 VRB03KT P6SM SKC
     FM280700 12012G21KT 5SM BR BKN030
     FM280900 13012G23KT 3SM BR OVC010
     FM281000 13012G22KT 3SM BR OVC008
     FM281200 13012KT 1 1/2SM -RA OVC003
     FM281900 11018G26KT 3/4SM -SHRA OVC003=

USA.gov is the U.S. government's official web portal to all federal, state and local government web resources and services.